Miflin, Alabama
Current Conditions -  °F | °C
As of 4:35 PM on Friday 19 Dec 2014 (Local Time) from KJKA Reporting Station
Moderate Rain Moderate Rain  
Wind Chill: 48°   Ceiling: 7000
Heat Index: 49°   Visibility: 10mi
Dew Point: 48°   Wind: 5mph
Humidity: 96%   Direction: 10°N
Pressure: 30.12"   Gusts: NA
Location:  30.4162°N, 87.5594°W
Report Text: KJKA 192235Z AUTO 01004KT 10SM RA SCT032 BKN070 OVC085 10/09 A3012 RMK AO2 P0007 T00960090
Loading
Personal Weather Stations






























Interactive Weather Map New forecast layout! Learn more

10-Day Weather Forecast

Advertisements
Track Severe Weather on mobile